Altoona, FL (32702)

9:09 AM EST on February 14, 2016 (GMT -0500)
OCALA NATIONAL FOREST | | Change Station
CLOSE
Current Station
Personal Weather Station
Location: Altoona, FL
Elevation: 108 ft
Nearby Weather Stations

Elev 108 ft 29.04 °N, 81.63 °W | Updated 0 second ago

Clear
Clear
48.8 °F
Feels Like 49 °F
N
1.0
Wind Variable Wind from NNW
Gusts 6.0 mph

Today
High -- | Low -- °F
--% Chance of Precip.
Yesterday
High -- | Low -- °F
Precip. -- in
Pressure 30.32 in
Visibility 10.0 miles
Clouds Clear
Windchill 49 °F
Dew Point 44 °F
Humidity 84%
Rainfall 0.00 in
Snow Depth Not available.
7:06 AM 6:15 PM
Waxing Crescent, 42% visible
METAR KLEE 141353Z 01007KT 10SM CLR 10/04 A3032 RMK AO2 SLP267 T01000044
Pressure 30.32 in
Visibility 10.0 miles
Clouds Clear
Windchill 49 °F
Dew Point 44 °F
Humidity 84%
Rainfall 0.00 in
Snow Depth Not available.
7:06 AM 6:15 PM
Waxing Crescent, 42% visible
METAR KLEE 141353Z 01007KT 10SM CLR 10/04 A3032 RMK AO2 SLP267 T01000044

10-Day Weather Forecast

Almanac

Astronomy

Feb. 14, 2016 Rise Set
Actual Time
Civil Twilight
Nautical Twilight
Astronomical Twilight
Moon
Length of Visible Light
Length of Day
Tomorrow will be .
, % of the Moon is Illuminated

Today's Extremes

State Highs State Lows

Community

WunderPhotos

Upload Photos

1,892,797 photos uploaded!

WunderBlog® & News

Nearby

Air Quality

  Air Quality AQ Index Pollutant
Not available.

Snow Depth

Station Depth Elevation

Earthquake Activity

City Distance Mag. Time & Date
Minimum magnitude displayed is 2.5.

Coastal Water Temperatures

Place Temperature

Stations

Nearby Weather Stations

Station Location Temp. Windchill Dew Point Humidity Wind Precip. Elev Updated Type
                   

Watches & Warnings

There are currently no watches in effect.